sensor_id;sensor_type;location;lat;lon;timestamp;pressure;altitude;pressure_sealevel;temperature;humidity
42621;BME280;28252;53.336;-6.298;2023-10-19T00:00:24;97652.06;;;20.69;100.00
42621;BME280;28252;53.336;-6.298;2023-10-19T00:00:56;97647.94;;;20.66;100.00
42621;BME280;28252;53.336;-6.298;2023-10-19T00:01:30;97643.34;;;20.67;100.00
42621;BME280;28252;53.336;-6.298;2023-10-19T00:02:07;97645.31;;;20.71;100.00
42621;BME280;28252;53.336;-6.298;2023-10-19T00:02:38;97643.69;;;20.70;100.00
42621;BME280;28252;53.336;-6.298;2023-10-19T00:03:09;97645.31;;;20.71;100.00
42621;BME280;28252;53.336;-6.298;2023-10-19T00:03:40;97645.78;;;20.68;100.00
42621;BME280;28252;53.336;-6.298;2023-10-19T00:04:12;97641.56;;;20.73;100.00
42621;BME280;28252;53.336;-6.298;2023-10-19T00:04:43;97647.44;;;20.69;100.00
42621;BME280;28252;53.336;-6.298;2023-10-19T00:05:14;97645.22;;;20.66;100.00
42621;BME280;28252;53.336;-6.298;2023-10-19T00:05:47;97646.31;;;20.65;100.00
42621;BME280;28252;53.336;-6.298;2023-10-19T00:06:19;97646.31;;;20.65;100.00
42621;BME280;28252;53.336;-6.298;2023-10-19T00:06:54;97640.91;;;20.65;100.00
42621;BME280;28252;53.336;-6.298;2023-10-19T00:07:26;97644.91;;;20.63;100.00
42621;BME280;28252;53.336;-6.298;2023-10-19T00:07:57;97640.38;;;20.68;100.00
42621;BME280;28252;53.336;-6.298;2023-10-19T00:08:28;97640.72;;;20.72;100.00
42621;BME280;28252;53.336;-6.298;2023-10-19T00:09:14;97638.28;;;20.70;100.00
42621;BME280;28252;53.336;-6.298;2023-10-19T00:09:46;97639.25;;;20.64;100.00
42621;BME280;28252;53.336;-6.298;2023-10-19T00:10:19;97642.41;;;20.61;100.00
42621;BME280;28252;53.336;-6.298;2023-10-19T00:10:51;97635.41;;;20.60;100.00
42621;BME280;28252;53.336;-6.298;2023-10-19T00:11:38;97641.41;;;20.62;100.00
42621;BME280;28252;53.336;-6.298;2023-10-19T00:12:11;97634.66;;;20.65;100.00
42621;BME280;28252;53.336;-6.298;2023-10-19T00:12:46;97637.00;;;20.61;100.00
42621;BME280;28252;53.336;-6.298;2023-10-19T00:13:25;97639.16;;;20.59;100.00
42621;BME280;28252;53.336;-6.298;2023-10-19T00:13:56;97630.22;;;20.59;100.00
42621;BME280;28252;53.336;-6.298;2023-10-19T00:14:29;97626.44;;;20.60;100.00
42621;BME280;28252;53.336;-6.298;2023-10-19T00:15:00;97629.50;;;20.63;100.00
42621;BME280;28252;53.336;-6.298;2023-10-19T00:15:38;97633.38;;;20.67;100.00
42621;BME280;28252;53.336;-6.298;2023-10-19T00:16:19;97633.50;;;20.61;100.00
42621;BME280;28252;53.336;-6.298;2023-10-19T00:16:54;97632.34;;;20.57;100.00
42621;BME280;28252;53.336;-6.298;2023-10-19T00:17:31;97629.38;;;20.58;100.00
42621;BME280;28252;53.336;-6.298;2023-10-19T00:18:03;97628.34;;;20.59;100.00
42621;BME280;28252;53.336;-6.298;2023-10-19T00:18:49;97636.56;;;20.64;100.00
42621;BME280;28252;53.336;-6.298;2023-10-19T00:19:20;97626.19;;;20.61;100.00
42621;BME280;28252;53.336;-6.298;2023-10-19T00:19:52;97623.19;;;20.58;100.00
42621;BME280;28252;53.336;-6.298;2023-10-19T00:21:48;97624.44;;;20.50;100.00
42621;BME280;28252;53.336;-6.298;2023-10-19T00:22:28;97626.53;;;20.48;100.00
42621;BME280;28252;53.336;-6.298;2023-10-19T00:23:09;97622.69;;;20.44;100.00
42621;BME280;28252;53.336;-6.298;2023-10-19T00:23:40;97621.72;;;20.50;100.00
42621;BME280;28252;53.336;-6.298;2023-10-19T00:24:11;97620.56;;;20.46;100.00
42621;BME280;28252;53.336;-6.298;2023-10-19T00:24:49;97612.78;;;20.49;100.00
42621;BME280;28252;53.336;-6.298;2023-10-19T00:25:21;97612.28;;;20.52;100.00
42621;BME280;28252;53.336;-6.298;2023-10-19T00:25:57;97612.78;;;20.49;100.00
42621;BME280;28252;53.336;-6.298;2023-10-19T00:26:29;97616.56;;;20.48;100.00
42621;BME280;28252;53.336;-6.298;2023-10-19T00:27:02;97616.13;;;20.57;100.00
42621;BME280;28252;53.336;-6.298;2023-10-19T00:27:48;97610.97;;;20.55;100.00
42621;BME280;28252;53.336;-6.298;2023-10-19T00:28:19;97614.75;;;20.54;100.00
42621;BME280;28252;53.336;-6.298;2023-10-19T00:28:53;97613.69;;;20.55;100.00
42621;BME280;28252;53.336;-6.298;2023-10-19T00:29:26;97613.34;;;20.51;100.00
42621;BME280;28252;53.336;-6.298;2023-10-19T00:30:10;97606.38;;;20.56;100.00
42621;BME280;28252;53.336;-6.298;2023-10-19T00:30:42;97613.69;;;20.55;100.00
42621;BME280;28252;53.336;-6.298;2023-10-19T00:31:19;97601.31;;;20.59;100.00
42621;BME280;28252;53.336;-6.298;2023-10-19T00:31:51;97611.06;;;20.60;100.00
42621;BME280;28252;53.336;-6.298;2023-10-19T00:32:24;97612.34;;;20.58;100.00
42621;BME280;28252;53.336;-6.298;2023-10-19T00:33:17;97601.31;;;20.59;100.00
42621;BME280;28252;53.336;-6.298;2023-10-19T00:33:52;97613.63;;;20.50;100.00
42621;BME280;28252;53.336;-6.298;2023-10-19T00:34:26;97606.06;;;20.52;100.00
42621;BME280;28252;53.336;-6.298;2023-10-19T00:34:59;97603.38;;;20.52;100.00
42621;BME280;28252;53.336;-6.298;2023-10-19T00:35:39;97606.06;;;20.52;100.00
42621;BME280;28252;53.336;-6.298;2023-10-19T00:36:17;97605.50;;;20.50;100.00
42621;BME280;28252;53.336;-6.298;2023-10-19T00:36:51;97603.94;;;20.54;100.00
42621;BME280;28252;53.336;-6.298;2023-10-19T00:37:23;97593.69;;;20.56;100.00
42621;BME280;28252;53.336;-6.298;2023-10-19T00:37:57;97606.63;;;20.54;100.00
42621;BME280;28252;53.336;-6.298;2023-10-19T00:38:48;97605.22;;;20.51;100.00
42621;BME280;28252;53.336;-6.298;2023-10-19T00:39:22;97601.72;;;20.51;100.00
42621;BME280;28252;53.336;-6.298;2023-10-19T00:39:54;97598.94;;;20.46;100.00
42621;BME280;28252;53.336;-6.298;2023-10-19T00:40:26;97604.41;;;20.51;100.00
42621;BME280;28252;53.336;-6.298;2023-10-19T00:41:09;97596.31;;;20.51;100.00
42621;BME280;28252;53.336;-6.298;2023-10-19T00:41:40;97608.44;;;20.48;100.00
42621;BME280;28252;53.336;-6.298;2023-10-19T00:42:16;97597.28;;;20.45;100.00
42621;BME280;28252;53.336;-6.298;2023-10-19T00:43:00;97598.94;;;20.46;100.00
42621;BME280;28252;53.336;-6.298;2023-10-19T00:43:37;97597.81;;;20.42;100.00
42621;BME280;28252;53.336;-6.298;2023-10-19T00:44:16;97595.50;;;20.33;100.00
42621;BME280;28252;53.336;-6.298;2023-10-19T00:44:53;97593.28;;;20.30;100.00
42621;BME280;28252;53.336;-6.298;2023-10-19T00:45:32;97592.00;;;20.33;100.00
42621;BME280;28252;53.336;-6.298;2023-10-19T00:46:11;97586.50;;;20.28;100.00
42621;BME280;28252;53.336;-6.298;2023-10-19T00:46:51;97587.25;;;20.23;100.00
42621;BME280;28252;53.336;-6.298;2023-10-19T00:47:34;97587.31;;;20.28;100.00
42621;BME280;28252;53.336;-6.298;2023-10-19T00:49:21;97589.94;;;20.23;100.00
42621;BME280;28252;53.336;-6.298;2023-10-19T00:49:54;97590.44;;;20.20;100.00
42621;BME280;28252;53.336;-6.298;2023-10-19T00:50:26;97584.13;;;20.14;100.00
42621;BME280;28252;53.336;-6.298;2023-10-19T00:51:03;97582.56;;;20.19;100.00
42621;BME280;28252;53.336;-6.298;2023-10-19T00:51:51;97590.28;;;20.27;100.00
42621;BME280;28252;53.336;-6.298;2023-10-19T00:52:27;97584.28;;;20.25;100.00
42621;BME280;28252;53.336;-6.298;2023-10-19T00:53:05;97581.84;;;20.23;100.00
42621;BME280;28252;53.336;-6.298;2023-10-19T00:53:39;97582.41;;;20.25;100.00
42621;BME280;28252;53.336;-6.298;2023-10-19T00:54:16;97580.75;;;20.24;100.00
42621;BME280;28252;53.336;-6.298;2023-10-19T00:54:57;97576.50;;;20.28;100.00
42621;BME280;28252;53.336;-6.298;2023-10-19T00:55:30;97585.09;;;20.25;100.00
42621;BME280;28252;53.336;-6.298;2023-10-19T00:56:03;97582.41;;;20.25;100.00
42621;BME280;28252;53.336;-6.298;2023-10-19T00:56:41;97581.34;;;20.26;100.00
42621;BME280;28252;53.336;-6.298;2023-10-19T00:57:20;97580.84;;;20.29;100.00
42621;BME280;28252;53.336;-6.298;2023-10-19T00:57:56;97580.91;;;20.34;100.00
42621;BME280;28252;53.336;-6.298;2023-10-19T00:58:36;97585.03;;;20.37;100.00
42621;BME280;28252;53.336;-6.298;2023-10-19T00:59:10;97580.66;;;20.36;100.00
42621;BME280;28252;53.336;-6.298;2023-10-19T00:59:54;97582.56;;;20.36;100.00
42621;BME280;28252;53.336;-6.298;2023-10-19T01:00:29;97585.34;;;20.41;100.00
42621;BME280;28252;53.336;-6.298;2023-10-19T01:01:07;97583.19;;;20.43;100.00
42621;BME280;28252;53.336;-6.298;2023-10-19T01:01:41;97582.56;;;20.36;100.00
42621;BME280;28252;53.336;-6.298;2023-10-19T01:02:19;97579.22;;;20.28;100.00
42621;BME280;28252;53.336;-6.298;2023-10-19T01:02:52;97572.16;;;20.27;100.00
42621;BME280;28252;53.336;-6.298;2023-10-19T01:03:37;97575.69;;;20.28;100.00
42621;BME280;28252;53.336;-6.298;2023-10-19T01:04:09;97575.34;;;20.24;100.00
42621;BME280;28252;53.336;-6.298;2023-10-19T01:04:49;97571.09;;;20.28;100.00
42621;BME280;28252;53.336;-6.298;2023-10-19T01:05:22;97574.06;;;20.27;100.00
42621;BME280;28252;53.336;-6.298;2023-10-19T01:05:55;97574.53;;;20.24;100.00
42621;BME280;28252;53.336;-6.298;2023-10-19T01:06:29;97569.13;;;20.24;100.00
42621;BME280;28252;53.336;-6.298;2023-10-19T01:07:02;97573.16;;;20.21;100.00
42621;BME280;28252;53.336;-6.298;2023-10-19T01:07:42;97578.31;;;20.23;100.00
42621;BME280;28252;53.336;-6.298;2023-10-19T01:08:16;97569.78;;;20.14;100.00
42621;BME280;28252;53.336;-6.298;2023-10-19T01:08:57;97574.06;;;20.10;100.00
42621;BME280;28252;53.336;-6.298;2023-10-19T01:09:28;97571.09;;;20.11;100.00
42621;BME280;28252;53.336;-6.298;2023-10-19T01:10:02;97573.50;;;20.08;100.00
42621;BME280;28252;53.336;-6.298;2023-10-19T01:10:38;97569.69;;;20.09;100.00
42621;BME280;28252;53.336;-6.298;2023-10-19T01:11:10;97572.41;;;20.09;100.00
42621;BME280;28252;53.336;-6.298;2023-10-19T01:11:45;97575.34;;;20.07;100.00
42621;BME280;28252;53.336;-6.298;2023-10-19T01:12:23;97565.38;;;20.08;100.00
42621;BME280;28252;53.336;-6.298;2023-10-19T01:13:06;97570.22;;;20.06;100.00
42621;BME280;28252;53.336;-6.298;2023-10-19T01:13:39;97564.81;;;20.06;100.00
42621;BME280;28252;53.336;-6.298;2023-10-19T01:14:21;97577.81;;;20.09;100.00
42621;BME280;28252;53.336;-6.298;2023-10-19T01:15:14;97561.28;;;20.05;100.00
42621;BME280;28252;53.336;-6.298;2023-10-19T01:15:51;97566.53;;;20.12;100.00
42621;BME280;28252;53.336;-6.298;2023-10-19T01:16:25;97565.72;;;20.11;100.00
42621;BME280;28252;53.336;-6.298;2023-10-19T01:17:00;97569.78;;;20.14;100.00
42621;BME280;28252;53.336;-6.298;2023-10-19T01:17:38;97561.84;;;20.07;100.00
42621;BME280;28252;53.336;-6.298;2023-10-19T01:18:09;97565.38;;;20.08;100.00
42621;BME280;28252;53.336;-6.298;2023-10-19T01:18:44;97560.22;;;20.06;100.00
42621;BME280;28252;53.336;-6.298;2023-10-19T01:19:19;97557.75;;;20.05;100.00
42621;BME280;28252;53.336;-6.298;2023-10-19T01:19:56;97560.31;;;20.11;100.00
42621;BME280;28252;53.336;-6.298;2023-10-19T01:20:30;97561.03;;;20.07;100.00
42621;BME280;28252;53.336;-6.298;2023-10-19T01:21:01;97557.34;;;20.13;100.00
42621;BME280;28252;53.336;-6.298;2023-10-19T01:21:38;97560.63;;;20.15;100.00
42621;BME280;28252;53.336;-6.298;2023-10-19T01:22:15;97557.28;;;20.08;100.00
42621;BME280;28252;53.336;-6.298;2023-10-19T01:23:20;97559.75;;;20.09;100.00
42621;BME280;28252;53.336;-6.298;2023-10-19T01:23:52;97558.97;;;20.14;100.00
42621;BME280;28252;53.336;-6.298;2023-10-19T01:24:23;97553.25;;;20.10;100.00
42621;BME280;28252;53.336;-6.298;2023-10-19T01:25:13;97556.72;;;20.06;100.00
42621;BME280;28252;53.336;-6.298;2023-10-19T01:25:57;97559.41;;;20.06;100.00
42621;BME280;28252;53.336;-6.298;2023-10-19T01:26:28;97549.09;;;20.03;100.00
42621;BME280;28252;53.336;-6.298;2023-10-19T01:27:02;97553.09;;;20.00;100.00
42621;BME280;28252;53.336;-6.298;2023-10-19T01:27:38;97549.34;;;20.01;100.00
42621;BME280;28252;53.336;-6.298;2023-10-19T01:28:14;97549.19;;;20.08;100.00
42621;BME280;28252;53.336;-6.298;2023-10-19T01:28:48;97548.34;;;20.07;100.00
42621;BME280;28252;53.336;-6.298;2023-10-19T01:29:26;97545.97;;;20.11;100.00
42621;BME280;28252;53.336;-6.298;2023-10-19T01:30:00;97548.34;;;20.07;100.00
42621;BME280;28252;53.336;-6.298;2023-10-19T01:30:36;97541.78;;;20.03;100.00
42621;BME280;28252;53.336;-6.298;2023-10-19T01:31:13;97547.19;;;20.03;100.00
42621;BME280;28252;53.336;-6.298;2023-10-19T01:31:47;97543.44;;;20.04;100.00
42621;BME280;28252;53.336;-6.298;2023-10-19T01:32:31;97545.22;;;19.99;100.00
42621;BME280;28252;53.336;-6.298;2023-10-19T01:33:03;97549.00;;;19.98;100.00
42621;BME280;28252;53.336;-6.298;2023-10-19T01:35:04;97545.47;;;19.97;100.00
42621;BME280;28252;53.336;-6.298;2023-10-19T01:35:35;97544.09;;;19.94;100.00
42621;BME280;28252;53.336;-6.298;2023-10-19T01:36:30;97540.34;;;19.95;100.00
42621;BME280;28252;53.336;-6.298;2023-10-19T01:37:10;97540.41;;;20.01;100.00
42621;BME280;28252;53.336;-6.298;2023-10-19T01:37:45;97545.91;;;20.06;100.00
42621;BME280;28252;53.336;-6.298;2023-10-19T01:38:21;97535.59;;;20.03;100.00
42621;BME280;28252;53.336;-6.298;2023-10-19T01:38:54;97539.09;;;20.03;100.00
42621;BME280;28252;53.336;-6.298;2023-10-19T01:39:33;97541.00;;;20.03;100.00
42621;BME280;28252;53.336;-6.298;2023-10-19T01:40:11;97541.47;;;20.00;100.00
42621;BME280;28252;53.336;-6.298;2023-10-19T01:40:49;97532.81;;;19.98;100.00
42621;BME280;28252;53.336;-6.298;2023-10-19T01:41:27;97536.63;;;20.02;100.00
42621;BME280;28252;53.336;-6.298;2023-10-19T01:41:58;97534.41;;;19.99;100.00
42621;BME280;28252;53.336;-6.298;2023-10-19T01:42:34;97538.22;;;19.98;100.00
42621;BME280;28252;53.336;-6.298;2023-10-19T01:43:05;97531.22;;;20.02;100.00
42621;BME280;28252;53.336;-6.298;2023-10-19T01:43:37;97531.72;;;19.99;100.00
42621;BME280;28252;53.336;-6.298;2023-10-19T01:44:11;97531.72;;;19.99;100.00
42621;BME280;28252;53.336;-6.298;2023-10-19T01:44:48;97530.59;;;19.94;100.00
42621;BME280;28252;53.336;-6.298;2023-10-19T01:45:22;97530.84;;;19.93;100.00
42621;BME280;28252;53.336;-6.298;2023-10-19T01:45:56;97527.06;;;19.94;100.00
42621;BME280;28252;53.336;-6.298;2023-10-19T01:46:34;97526.25;;;19.93;100.00
42621;BME280;28252;53.336;-6.298;2023-10-19T01:47:08;97526.84;;;19.95;100.00
42621;BME280;28252;53.336;-6.298;2023-10-19T01:47:41;97525.44;;;19.93;100.00
42621;BME280;28252;53.336;-6.298;2023-10-19T01:48:18;97521.91;;;19.92;100.00
42621;BME280;28252;53.336;-6.298;2023-10-19T01:48:53;97515.69;;;19.92;100.00
42621;BME280;28252;53.336;-6.298;2023-10-19T01:49:27;97522.81;;;19.98;100.00
42621;BME280;28252;53.336;-6.298;2023-10-19T01:50:01;97521.91;;;19.92;100.00
42621;BME280;28252;53.336;-6.298;2023-10-19T01:50:36;97520.84;;;19.93;100.00
42621;BME280;28252;53.336;-6.298;2023-10-19T01:51:14;97522.47;;;19.94;100.00
42621;BME280;28252;53.336;-6.298;2023-10-19T01:51:45;97518.66;;;19.90;100.00
42621;BME280;28252;53.336;-6.298;2023-10-19T01:52:21;97517.56;;;19.91;100.00
42621;BME280;28252;53.336;-6.298;2023-10-19T01:52:55;97523.47;;;19.88;100.00
42621;BME280;28252;53.336;-6.298;2023-10-19T01:53:27;97511.03;;;19.87;100.00
42621;BME280;28252;53.336;-6.298;2023-10-19T01:53:58;97516.75;;;19.91;100.00
42621;BME280;28252;53.336;-6.298;2023-10-19T01:54:31;97517.56;;;19.91;100.00
42621;BME280;28252;53.336;-6.298;2023-10-19T01:55:02;97514.53;;;19.88;100.00
42621;BME280;28252;53.336;-6.298;2023-10-19T01:55:38;97519.38;;;19.86;100.00
42621;BME280;28252;53.336;-6.298;2023-10-19T01:56:12;97517.66;;;19.80;100.00
42621;BME280;28252;53.336;-6.298;2023-10-19T01:56:47;97512.50;;;19.78;100.00
42621;BME280;28252;53.336;-6.298;2023-10-19T01:57:21;97516.53;;;19.92;100.00
42621;BME280;28252;53.336;-6.298;2023-10-19T01:57:52;97511.34;;;19.91;100.00
42621;BME280;28252;53.336;-6.298;2023-10-19T01:58:25;97510.19;;;19.87;100.00
42621;BME280;28252;53.336;-6.298;2023-10-19T01:58:58;97504.94;;;19.80;100.00
42621;BME280;28252;53.336;-6.298;2023-10-19T01:59:30;97510.34;;;19.80;100.00
42621;BME280;28252;53.336;-6.298;2023-10-19T02:00:01;97506.53;;;19.76;100.00
42621;BME280;28252;53.336;-6.298;2023-10-19T02:00:43;97507.41;;;19.82;100.00
42621;BME280;28252;53.336;-6.298;2023-10-19T02:01:19;97509.53;;;19.80;100.00
42621;BME280;28252;53.336;-6.298;2023-10-19T02:01:50;97505.47;;;19.77;100.00
42621;BME280;28252;53.336;-6.298;2023-10-19T02:02:23;97505.91;;;19.74;100.00
42621;BME280;28252;53.336;-6.298;2023-10-19T02:02:55;97505.13;;;19.73;100.00
42621;BME280;28252;53.336;-6.298;2023-10-19T02:03:26;97500.53;;;19.74;100.00
42621;BME280;28252;53.336;-6.298;2023-10-19T02:04:03;97495.59;;;19.71;100.00
42621;BME280;28252;53.336;-6.298;2023-10-19T02:04:38;97501.50;;;19.68;100.00
42621;BME280;28252;53.336;-6.298;2023-10-19T02:05:11;97494.78;;;19.70;100.00
42621;BME280;28252;53.336;-6.298;2023-10-19T02:05:46;97498.53;;;19.69;100.00
42621;BME280;28252;53.336;-6.298;2023-10-19T02:06:23;97494.31;;;19.73;100.00
42621;BME280;28252;53.336;-6.298;2023-10-19T02:06:58;97500.53;;;19.74;100.00
42621;BME280;28252;53.336;-6.298;2023-10-19T02:07:31;97496.09;;;19.68;100.00
42621;BME280;28252;53.336;-6.298;2023-10-19T02:08:03;97488.97;;;19.62;100.00
42621;BME280;28252;53.336;-6.298;2023-10-19T02:08:40;97488.00;;;19.68;100.00
42621;BME280;28252;53.336;-6.298;2023-10-19T02:09:15;97496.09;;;19.68;100.00
42621;BME280;28252;53.336;-6.298;2023-10-19T02:09:53;97486.94;;;19.69;100.00
42621;BME280;28252;53.336;-6.298;2023-10-19T02:10:24;97490.69;;;19.68;100.00
42621;BME280;28252;53.336;-6.298;2023-10-19T02:10:58;97493.63;;;19.66;100.00
42621;BME280;28252;53.336;-6.298;2023-10-19T02:11:36;97480.38;;;19.65;100.00
42621;BME280;28252;53.336;-6.298;2023-10-19T02:12:12;97482.59;;;19.68;100.00
42621;BME280;28252;53.336;-6.298;2023-10-19T02:12:48;97478.09;;;19.73;100.00
42621;BME280;28252;53.336;-6.298;2023-10-19T02:13:20;97480.47;;;19.70;100.00
42621;BME280;28252;53.336;-6.298;2023-10-19T02:13:52;97482.03;;;19.66;100.00
42621;BME280;28252;53.336;-6.298;2023-10-19T02:14:24;97481.78;;;19.67;100.00
42621;BME280;28252;53.336;-6.298;2023-10-19T02:14:59;97476.53;;;19.60;100.00
42621;BME280;28252;53.336;-6.298;2023-10-19T02:15:31;97482.50;;;19.63;100.00
42621;BME280;28252;53.336;-6.298;2023-10-19T02:16:02;97471.63;;;19.57;100.00
42621;BME280;28252;53.336;-6.298;2023-10-19T02:16:34;97468.44;;;19.60;100.00
42621;BME280;28252;53.336;-6.298;2023-10-19T02:17:10;97474.66;;;19.61;100.00
42621;BME280;28252;53.336;-6.298;2023-10-19T02:17:41;97467.38;;;19.62;100.00
42621;BME280;28252;53.336;-6.298;2023-10-19T02:18:13;97471.47;;;19.64;100.00
42621;BME280;28252;53.336;-6.298;2023-10-19T02:18:44;97472.78;;;19.62;100.00
42621;BME280;28252;53.336;-6.298;2023-10-19T02:19:21;97477.59;;;19.59;100.00
42621;BME280;28252;53.336;-6.298;2023-10-19T02:19:53;97467.47;;;19.67;100.00
42621;BME280;28252;53.336;-6.298;2023-10-19T02:20:26;97474.13;;;19.76;100.00
42621;BME280;28252;53.336;-6.298;2023-10-19T02:21:01;97465.59;;;19.84;100.00
42621;BME280;28252;53.336;-6.298;2023-10-19T02:21:37;97468.31;;;19.84;100.00
42621;BME280;28252;53.336;-6.298;2023-10-19T02:22:13;97459.56;;;19.77;100.00
42621;BME280;28252;53.336;-6.298;2023-10-19T02:22:47;97460.63;;;19.76;100.00
42621;BME280;28252;53.336;-6.298;2023-10-19T02:23:18;97469.56;;;19.65;100.00
42621;BME280;28252;53.336;-6.298;2023-10-19T02:23:52;97463.03;;;19.60;100.00
42621;BME280;28252;53.336;-6.298;2023-10-19T02:24:26;97461.38;;;19.59;100.00
42621;BME280;28252;53.336;-6.298;2023-10-19T02:24:59;97459.78;;;19.58;100.00
42621;BME280;28252;53.336;-6.298;2023-10-19T02:25:30;97458.38;;;19.56;100.00
42621;BME280;28252;53.336;-6.298;2023-10-19T02:26:05;97457.06;;;19.58;100.00
42621;BME280;28252;53.336;-6.298;2023-10-19T02:26:36;97460.00;;;19.57;100.00
42621;BME280;28252;53.336;-6.298;2023-10-19T02:27:08;97459.59;;;19.48;100.00
42621;BME280;28252;53.336;-6.298;2023-10-19T02:27:39;97454.22;;;19.48;100.00
42621;BME280;28252;53.336;-6.298;2023-10-19T02:28:11;97454.78;;;19.50;100.00
42621;BME280;28252;53.336;-6.298;2023-10-19T02:28:42;97448.41;;;19.56;100.00
42621;BME280;28252;53.336;-6.298;2023-10-19T02:29:19;97449.47;;;19.55;100.00
42621;BME280;28252;53.336;-6.298;2023-10-19T02:29:50;97451.91;;;19.57;100.00
42621;BME280;28252;53.336;-6.298;2023-10-19T02:30:21;97448.13;;;19.58;100.00
42621;BME280;28252;53.336;-6.298;2023-10-19T02:30:56;97453.22;;;19.54;100.00
42621;BME280;28252;53.336;-6.298;2023-10-19T02:31:27;97447.25;;;19.52;100.00
42621;BME280;28252;53.336;-6.298;2023-10-19T02:31:58;97447.72;;;19.49;100.00
42621;BME280;28252;53.336;-6.298;2023-10-19T02:32:38;97450.44;;;19.49;100.00
42621;BME280;28252;53.336;-6.298;2023-10-19T02:33:10;97441.19;;;19.62;100.00
42621;BME280;28252;53.336;-6.298;2023-10-19T02:33:43;97442.94;;;19.68;100.00
42621;BME280;28252;53.336;-6.298;2023-10-19T02:34:16;97442.66;;;19.70;100.00
42621;BME280;28252;53.336;-6.298;2023-10-19T02:34:48;97439.47;;;19.73;100.00
42621;BME280;28252;53.336;-6.298;2023-10-19T02:35:21;97436.94;;;19.66;100.00
42621;BME280;28252;53.336;-6.298;2023-10-19T02:35:52;97434.41;;;19.59;100.00
42621;BME280;28252;53.336;-6.298;2023-10-19T02:36:26;97432.78;;;19.58;100.00
42621;BME280;28252;53.336;-6.298;2023-10-19T02:37:01;97429.50;;;19.56;100.00
42621;BME280;28252;53.336;-6.298;2023-10-19T02:37:36;97434.00;;;19.51;100.00
42621;BME280;28252;53.336;-6.298;2023-10-19T02:38:09;97430.56;;;19.55;100.00
42621;BME280;28252;53.336;-6.298;2023-10-19T02:38:40;97425.72;;;19.57;100.00
42621;BME280;28252;53.336;-6.298;2023-10-19T02:39:16;97423.50;;;19.54;100.00
42621;BME280;28252;53.336;-6.298;2023-10-19T02:39:51;97420.25;;;19.52;100.00
42621;BME280;28252;53.336;-6.298;2023-10-19T02:40:23;97428.34;;;19.52;100.00
42621;BME280;28252;53.336;-6.298;2023-10-19T02:40:57;97420.16;;;19.47;100.00
42621;BME280;28252;53.336;-6.298;2023-10-19T02:41:29;97425.81;;;19.46;100.00
42621;BME280;28252;53.336;-6.298;2023-10-19T02:42:00;97420.16;;;19.47;100.00
42621;BME280;28252;53.336;-6.298;2023-10-19T02:42:33;97411.50;;;19.45;100.00
42621;BME280;28252;53.336;-6.298;2023-10-19T02:43:04;97416.66;;;19.47;100.00
42621;BME280;28252;53.336;-6.298;2023-10-19T02:43:36;97412.06;;;19.47;100.00
42621;BME280;28252;53.336;-6.298;2023-10-19T02:44:13;97410.78;;;19.50;100.00
42621;BME280;28252;53.336;-6.298;2023-10-19T02:44:47;97407.16;;;19.44;100.00
42621;BME280;28252;53.336;-6.298;2023-10-19T02:45:21;97407.41;;;19.42;100.00
42621;BME280;28252;53.336;-6.298;2023-10-19T02:45:52;97406.59;;;19.42;100.00
42621;BME280;28252;53.336;-6.298;2023-10-19T02:46:24;97412.31;;;19.46;100.00
42621;BME280;28252;53.336;-6.298;2023-10-19T02:46:56;97406.91;;;19.46;100.00
42621;BME280;28252;53.336;-6.298;2023-10-19T02:47:30;97404.22;;;19.46;100.00
42621;BME280;28252;53.336;-6.298;2023-10-19T02:48:01;97406.09;;;19.45;100.00
42621;BME280;28252;53.336;-6.298;2023-10-19T02:48:35;97398.97;;;19.39;100.00
42621;BME280;28252;53.336;-6.298;2023-10-19T02:49:12;97392.84;;;19.44;100.00
42621;BME280;28252;53.336;-6.298;2023-10-19T02:49:55;97388.59;;;19.48;100.00
42621;BME280;28252;53.336;-6.298;2023-10-19T02:50:26;97395.63;;;19.49;100.00
42621;BME280;28252;53.336;-6.298;2023-10-19T02:50:58;97393.25;;;19.52;100.00
42621;BME280;28252;53.336;-6.298;2023-10-19T02:51:39;97387.22;;;19.45;100.00
42621;BME280;28252;53.336;-6.298;2023-10-19T02:52:11;97390.16;;;19.44;100.00
42621;BME280;28252;53.336;-6.298;2023-10-19T02:52:48;97385.81;;;19.42;100.00
42621;BME280;28252;53.336;-6.298;2023-10-19T02:53:19;97383.38;;;19.41;100.00
42621;BME280;28252;53.336;-6.298;2023-10-19T02:53:54;97383.38;;;19.41;100.00
42621;BME280;28252;53.336;-6.298;2023-10-19T02:54:25;97372.31;;;19.42;100.00
42621;BME280;28252;53.336;-6.298;2023-10-19T02:54:56;97372.91;;;19.45;100.00
42621;BME280;28252;53.336;-6.298;2023-10-19T02:55:32;97376.91;;;19.42;100.00
42621;BME280;28252;53.336;-6.298;2023-10-19T02:56:12;97370.47;;;19.43;100.00
42621;BME280;28252;53.336;-6.298;2023-10-19T02:56:48;97372.06;;;19.44;100.00
42621;BME280;28252;53.336;-6.298;2023-10-19T02:57:21;97368.09;;;19.47;100.00
42621;BME280;28252;53.336;-6.298;2023-10-19T02:57:55;97364.50;;;19.41;100.00
42621;BME280;28252;53.336;-6.298;2023-10-19T02:58:29;97362.59;;;19.41;100.00
42621;BME280;28252;53.336;-6.298;2023-10-19T03:01:25;97360.31;;;19.50;100.00
42621;BME280;28252;53.336;-6.298;2023-10-19T03:02:00;97355.97;;;19.49;100.00
42621;BME280;28252;53.336;-6.298;2023-10-19T03:03:29;97358.66;;;19.49;100.00
42621;BME280;28252;53.336;-6.298;2023-10-19T03:04:02;97358.16;;;19.52;100.00
42621;BME280;28252;53.336;-6.298;2023-10-19T03:04:35;97352.69;;;19.47;100.00
42621;BME280;28252;53.336;-6.298;2023-10-19T03:05:08;97357.53;;;19.45;100.00
42621;BME280;28252;53.336;-6.298;2023-10-19T03:05:50;97351.00;;;19.41;100.00
42621;BME280;28252;53.336;-6.298;2023-10-19T03:06:24;97348.31;;;19.41;100.00
42621;BME280;28252;53.336;-6.298;2023-10-19T03:06:56;97350.47;;;19.44;100.00
42621;BME280;28252;53.336;-6.298;2023-10-19T03:07:28;97346.16;;;19.43;100.00
42621;BME280;28252;53.336;-6.298;2023-10-19T03:08:05;97349.50;;;19.50;100.00
42621;BME280;28252;53.336;-6.298;2023-10-19T03:08:38;97345.94;;;19.45;100.00